Home > Products > Valid Products > TAF

000
FTUS44 KMRX 271130
TAFTYS
TAF
KTYS 271130Z 2712/2812 21007KT P6SM OVC035
     FM271400 23008KT P6SM BKN040
     FM271600 24010KT P6SM SCT045 BKN200
     FM280000 23005KT P6SM VCTS BKN040CB
     FM280800 23003KT P6SM SCT025 BKN150=



000
FTUS44 KMRX 271130
TAFTRI
TAF
KTRI 271130Z 2712/2812 23005KT P6SM BKN045
     FM271600 24008KT P6SM SCT050 BKN200
     FM280000 VRB03KT P6SM SCT045 BKN150
     FM280600 00000KT P6SM FEW040 BKN090=



000
FTUS44 KMRX 271130
TAFCHA
TAF
KCHA 271130Z 2712/2812 17003KT 6SM BR SCT009 BKN025
     FM271400 18005KT P6SM BKN035
     FM271800 20006KT P6SM VCTS SCT045CB BKN200
     FM272300 19004KT 4SM -TSRA BR BKN040CB
     FM280300 VRB03KT P6SM SCT050 BKN100
     FM280800 00000KT 5SM BR SCT015 SCT100=



000
FTUS44 KMRX 271130
TAFTYS
TAF
KTYS 271130Z 2712/2812 21007KT P6SM OVC035
     FM271400 23008KT P6SM BKN040
     FM271600 24010KT P6SM SCT045 BKN200
     FM280000 23005KT P6SM VCTS BKN040CB
     FM280800 23003KT P6SM SCT025 BKN150=



000
FTUS44 KMRX 271130
TAFTRI
TAF
KTRI 271130Z 2712/2812 23005KT P6SM BKN045
     FM271600 24008KT P6SM SCT050 BKN200
     FM280000 VRB03KT P6SM SCT045 BKN150
     FM280600 00000KT P6SM FEW040 BKN090=



000
FTUS44 KMRX 271130
TAFCHA
TAF
KCHA 271130Z 2712/2812 17003KT 6SM BR SCT009 BKN025
     FM271400 18005KT P6SM BKN035
     FM271800 20006KT P6SM VCTS SCT045CB BKN200
     FM272300 19004KT 4SM -TSRA BR BKN040CB
     FM280300 VRB03KT P6SM SCT050 BKN100
     FM280800 00000KT 5SM BR SCT015 SCT100=



000
FTUS44 KMRX 270930 AAA
TAFCHA
TAF AMD
KCHA 270930Z 2710/2806 18003KT P6SM SCT008 OVC025
      TEMPO 2710/2712 BKN008
     FM271400 18006KT P6SM OVC020
     FM271800 20006KT P6SM BKN100 BKN250
     FM280000 19004KT P6SM BKN250=



000
FTUS44 KMRX 270930 AAA
TAFCHA
TAF AMD
KCHA 270930Z 2710/2806 18003KT P6SM SCT008 OVC025
      TEMPO 2710/2712 BKN008
     FM271400 18006KT P6SM OVC020
     FM271800 20006KT P6SM BKN100 BKN250
     FM280000 19004KT P6SM BKN250=



000
FTUS44 KMRX 270525
TAFTRI
TAF
KTRI 270525Z 2706/2806 20003KT P6SM SCT060 BKN100
     FM270800 VRB03KT 4SM BR SCT025 BKN200
     FM271400 23007KT P6SM SCT020 BKN050
     FM271800 22009KT P6SM BKN250
     FM280000 VRB03KT P6SM BKN250=



000
FTUS44 KMRX 270525
TAFCHA
TAF
KCHA 270525Z 2706/2806 00000KT P6SM SCT020 BKN250
     FM270800 00000KT 5SM BR BKN010
     FM271400 18006KT P6SM OVC020
     FM271800 20006KT P6SM BKN100 BKN250
     FM280000 19004KT P6SM BKN250=



000
FTUS44 KMRX 270525
TAFTYS
TAF
KTYS 270525Z 2706/2806 23008KT P6SM SCT050 BKN250
     FM270800 24005KT 6SM BR OVC035
     FM271400 23006KT P6SM BKN040
     FM271800 24007KT P6SM BKN250
     FM280000 22005KT P6SM OVC250=



000
FTUS44 KMRX 270525
TAFTRI
TAF
KTRI 270525Z 2706/2806 20003KT P6SM SCT060 BKN100
     FM270800 VRB03KT 4SM BR SCT025 BKN200
     FM271400 23007KT P6SM SCT020 BKN050
     FM271800 22009KT P6SM BKN250
     FM280000 VRB03KT P6SM BKN250=



000
FTUS44 KMRX 270525
TAFCHA
TAF
KCHA 270525Z 2706/2806 00000KT P6SM SCT020 BKN250
     FM270800 00000KT 5SM BR BKN010
     FM271400 18006KT P6SM OVC020
     FM271800 20006KT P6SM BKN100 BKN250
     FM280000 19004KT P6SM BKN250=



000
FTUS44 KMRX 270525
TAFTYS
TAF
KTYS 270525Z 2706/2806 23008KT P6SM SCT050 BKN250
     FM270800 24005KT 6SM BR OVC035
     FM271400 23006KT P6SM BKN040
     FM271800 24007KT P6SM BKN250
     FM280000 22005KT P6SM OVC250=



000
FTUS44 KMRX 270525
TAFTRI
TAF
KTRI 270525Z 2706/2806 20003KT P6SM SCT060 BKN100
     FM270800 VRB03KT 4SM BR SCT025 BKN200
     FM271400 23007KT P6SM SCT020 BKN050
     FM271800 22009KT P6SM BKN250
     FM280000 VRB03KT P6SM BKN250=



000
FTUS44 KMRX 262336
TAFTRI
TAF
KTRI 262336Z 2700/2724 20010KT P6SM FEW050 SCT080 OVC250
     FM270200 23009KT P6SM SCT025 OVC070
     FM270800 00000KT 4SM BR BKN035
     FM271400 25007KT P6SM SCT020 OVC060
     FM271800 22009KT P6SM BKN100=



000
FTUS44 KMRX 262336
TAFCHA
TAF
KCHA 262336Z 2700/2724 16006KT P6SM SCT020 OVC150
      TEMPO 2700/2702 BKN014
     FM270200 00000KT P6SM SCT020 OVC060
     FM270800 00000KT 6SM BR BKN025
     FM271400 20006KT P6SM BKN040
     FM271800 20006KT P6SM BKN250=



000
FTUS44 KMRX 262336
TAFCHA
TAF
KCHA 262336Z 2700/2724 16006KT P6SM SCT020 OVC150
      TEMPO 2700/2702 BKN014
     FM270200 00000KT P6SM SCT020 OVC060
     FM270800 00000KT 6SM BR BKN025
     FM271400 20006KT P6SM BKN040
     FM271800 20006KT P6SM BKN250=



000
FTUS44 KMRX 262336
TAFTYS
TAF
KTYS 262336Z 2700/2724 20010G18KT P6SM VCTS SCT050CB BKN250
      TEMPO 2700/2702 4SM -SHRA BR FEW030 BKN050
     FM270200 23009KT P6SM VCSH SCT025 BKN070
     FM270800 23005KT 6SM BR BKN025
     FM271400 23006KT P6SM BKN040
     FM271800 23007KT P6SM BKN250=



000
FTUS44 KMRX 262336
TAFTYS
TAF
KTYS 262336Z 2700/2724 20010G18KT P6SM VCTS SCT050CB BKN250
      TEMPO 2700/2702 4SM -SHRA BR FEW030 BKN050
     FM270200 23009KT P6SM VCSH SCT025 BKN070
     FM270800 23005KT 6SM BR BKN025
     FM271400 23006KT P6SM BKN040
     FM271800 23007KT P6SM BKN250=



000
FTUS44 KMRX 262336
TAFTRI
TAF
KTRI 262336Z 2700/2724 20010KT P6SM FEW050 SCT080 OVC250
     FM270200 23009KT P6SM SCT025 OVC070
     FM270800 00000KT 4SM BR BKN035
     FM271400 25007KT P6SM SCT020 OVC060
     FM271800 22009KT P6SM BKN100=



000
FTUS44 KMRX 262336
TAFCHA
TAF
KCHA 262336Z 2700/2724 16006KT P6SM SCT020 OVC150
      TEMPO 2700/2702 BKN014
     FM270200 00000KT P6SM SCT020 OVC060
     FM270800 00000KT 6SM BR BKN025
     FM271400 20006KT P6SM BKN040
     FM271800 20006KT P6SM BKN250=



000
FTUS44 KMRX 262336
TAFTRI
TAF
KTRI 262336Z 2700/2724 20010KT P6SM FEW050 SCT080 OVC250
     FM270200 23009KT P6SM SCT025 OVC070
     FM270800 00000KT 4SM BR BKN035
     FM271400 25007KT P6SM SCT020 OVC060
     FM271800 22009KT P6SM BKN100=



000
FTUS44 KMRX 262336
TAFTYS
TAF
KTYS 262336Z 2700/2724 20010G18KT P6SM VCTS SCT050CB BKN250
      TEMPO 2700/2702 4SM -SHRA BR FEW030 BKN050
     FM270200 23009KT P6SM VCSH SCT025 BKN070
     FM270800 23005KT 6SM BR BKN025
     FM271400 23006KT P6SM BKN040
     FM271800 23007KT P6SM BKN250=



000
FTUS44 KMRX 262244 AAC
TAFCHA
TAF AMD
KCHA 262244Z 2623/2718 17010KT P6SM VCTS SCT025 BKN040CB
      TEMPO 2623/2701 5SM -SHRA BR BKN015
     FM270200 00000KT P6SM VCSH SCT020 BKN080
     FM270800 00000KT 6SM BR BKN025
     FM271400 20006KT P6SM SCT040 BKN120=



000
FTUS44 KMRX 262244 AAC
TAFCHA
TAF AMD
KCHA 262244Z 2623/2718 17010KT P6SM VCTS SCT025 BKN040CB
      TEMPO 2623/2701 5SM -SHRA BR BKN015
     FM270200 00000KT P6SM VCSH SCT020 BKN080
     FM270800 00000KT 6SM BR BKN025
     FM271400 20006KT P6SM SCT040 BKN120=



000
FTUS44 KMRX 262212 AAA
TAFTRI
TAF AMD
KTRI 262212Z 2622/2718 20010G20KT P6SM VCTS SCT040CB BKN090
      TEMPO 2622/2624 5SM -RA BR OVC040
     FM270200 00000KT P6SM VCSH SCT020 BKN050
     FM270800 00000KT 4SM BR BKN015
     FM271400 25006KT P6SM SCT020 BKN080=



000
FTUS44 KMRX 262212 AAA
TAFTRI
TAF AMD
KTRI 262212Z 2622/2718 20010G20KT P6SM VCTS SCT040CB BKN090
      TEMPO 2622/2624 5SM -RA BR OVC040
     FM270200 00000KT P6SM VCSH SCT020 BKN050
     FM270800 00000KT 4SM BR BKN015
     FM271400 25006KT P6SM SCT020 BKN080=



000
FTUS44 KMRX 262206 AAD
TAFTYS
TAF AMD
KTYS 262206Z 2622/2718 20011G20KT P6SM VCTS SCT050CB BKN250
      TEMPO 2623/2701 4SM -TSRA BR FEW030 OVC040CB
     FM270200 23004KT P6SM VCSH SCT025 BKN060
     FM270800 00000KT 6SM BR BKN025
     FM271400 22006KT P6SM SCT040 BKN120=



000
FTUS44 KMRX 262030 AAC
TAFTYS
TAF AMD
KTYS 262030Z 2621/2718 22014G22KT P6SM VCTS SCT050CB BKN250
      TEMPO 2621/2623 4SM -TSRA BR FEW030 OVC040CB
     FM270200 23004KT P6SM VCSH SCT025 BKN060
     FM270800 00000KT 6SM BR BKN025
     FM271400 22006KT P6SM SCT040 BKN120=



000
FTUS44 KMRX 262030 AAC
TAFTYS
TAF AMD
KTYS 262030Z 2621/2718 22014G22KT P6SM VCTS SCT050CB BKN250
      TEMPO 2621/2623 4SM -TSRA BR FEW030 OVC040CB
     FM270200 23004KT P6SM VCSH SCT025 BKN060
     FM270800 00000KT 6SM BR BKN025
     FM271400 22006KT P6SM SCT040 BKN120=



000
FTUS44 KMRX 261901 AAB
TAFTYS
TAF AMD
KTYS 261901Z 2619/2718 22014G22KT P6SM VCTS SCT040CB BKN150
      TEMPO 2619/2623 5SM -RA BR FEW030 OVC040
     FM270200 23004KT P6SM VCSH SCT025 BKN080
     FM270800 00000KT 6SM BR BKN025
     FM271400 22006KT P6SM SCT040 BKN120=



000
FTUS44 KMRX 261901 AAB
TAFTYS
TAF AMD
KTYS 261901Z 2619/2718 22014G22KT P6SM VCTS SCT040CB BKN150
      TEMPO 2619/2623 5SM -RA BR FEW030 OVC040
     FM270200 23004KT P6SM VCSH SCT025 BKN080
     FM270800 00000KT 6SM BR BKN025
     FM271400 22006KT P6SM SCT040 BKN120=



000
FTUS44 KMRX 261827 AAB
TAFCHA
TAF AMD
KCHA 261827Z 2618/2718 17010KT P6SM VCTS SCT025 BKN040CB
      TEMPO 2618/2622 5SM -RA BR OVC025
     FM270200 00000KT P6SM VCSH SCT020 BKN080
     FM270800 00000KT 6SM BR BKN025
     FM271400 20006KT P6SM SCT040 BKN120=



000
FTUS44 KMRX 261827 AAB
TAFCHA
TAF AMD
KCHA 261827Z 2618/2718 17010KT P6SM VCTS SCT025 BKN040CB
      TEMPO 2618/2622 5SM -RA BR OVC025
     FM270200 00000KT P6SM VCSH SCT020 BKN080
     FM270800 00000KT 6SM BR BKN025
     FM271400 20006KT P6SM SCT040 BKN120=



000
FTUS44 KMRX 261802 AAA
TAFCHA
TAF AMD
KCHA 261802Z 2618/2718 15010G16KT P6SM VCTS SCT025 BKN040CB
      TEMPO 2618/2622 5SM -RA BR OVC025
     FM270200 00000KT P6SM VCSH SCT020 BKN080
     FM270800 00000KT 6SM BR BKN025
     FM271400 20006KT P6SM SCT040 BKN120=



000
FTUS44 KMRX 261802 AAA
TAFCHA
TAF AMD
KCHA 261802Z 2618/2718 15010G16KT P6SM VCTS SCT025 BKN040CB
      TEMPO 2618/2622 5SM -RA BR OVC025
     FM270200 00000KT P6SM VCSH SCT020 BKN080
     FM270800 00000KT 6SM BR BKN025
     FM271400 20006KT P6SM SCT040 BKN120=



000
FTUS44 KMRX 261759 AAA
TAFTYS
TAF AMD
KTYS 261759Z 2618/2718 20016G25KT P6SM VCTS SCT040CB BKN150
      TEMPO 2618/2622 5SM -RA BR FEW030 OVC040
     FM270200 23004KT P6SM VCSH SCT025 BKN080
     FM270800 00000KT 6SM BR BKN025
     FM271400 22006KT P6SM SCT040 BKN120=



000
FTUS44 KMRX 261759 AAA
TAFTYS
TAF AMD
KTYS 261759Z 2618/2718 20016G25KT P6SM VCTS SCT040CB BKN150
      TEMPO 2618/2622 5SM -RA BR FEW030 OVC040
     FM270200 23004KT P6SM VCSH SCT025 BKN080
     FM270800 00000KT 6SM BR BKN025
     FM271400 22006KT P6SM SCT040 BKN120=



000
FTUS44 KMRX 261724
TAFTYS
TAF
KTYS 261724Z 2618/2718 20009KT P6SM VCTS SCT040CB BKN150
      TEMPO 2618/2622 5SM -RA BR FEW030 OVC040
     FM270200 23004KT P6SM VCSH SCT025 BKN080
     FM270800 00000KT 6SM BR BKN025
     FM271400 22006KT P6SM SCT040 BKN120=



000
FTUS44 KMRX 261724
TAFCHA
TAF
KCHA 261724Z 2618/2718 18008KT P6SM VCTS SCT025 BKN040CB
      TEMPO 2618/2622 5SM -RA BR OVC025
     FM270200 00000KT P6SM VCSH SCT020 BKN080
     FM270800 00000KT 6SM BR BKN025
     FM271400 20006KT P6SM SCT040 BKN120=



000
FTUS44 KMRX 261724
TAFTRI
TAF
KTRI 261724Z 2618/2718 22008KT P6SM VCTS SCT040CB BKN090
      TEMPO 2620/2624 5SM -RA BR OVC040
     FM270200 00000KT P6SM VCSH SCT020 BKN050
     FM270800 00000KT 4SM BR BKN015
     FM271400 25006KT P6SM SCT020 BKN080=



000
FTUS44 KMRX 261724
TAFTYS
TAF
KTYS 261724Z 2618/2718 20009KT P6SM VCTS SCT040CB BKN150
      TEMPO 2618/2622 5SM -RA BR FEW030 OVC040
     FM270200 23004KT P6SM VCSH SCT025 BKN080
     FM270800 00000KT 6SM BR BKN025
     FM271400 22006KT P6SM SCT040 BKN120=



000
FTUS44 KMRX 261724
TAFTRI
TAF
KTRI 261724Z 2618/2718 22008KT P6SM VCTS SCT040CB BKN090
      TEMPO 2620/2624 5SM -RA BR OVC040
     FM270200 00000KT P6SM VCSH SCT020 BKN050
     FM270800 00000KT 4SM BR BKN015
     FM271400 25006KT P6SM SCT020 BKN080=



000
FTUS44 KMRX 261724
TAFCHA
TAF
KCHA 261724Z 2618/2718 18008KT P6SM VCTS SCT025 BKN040CB
      TEMPO 2618/2622 5SM -RA BR OVC025
     FM270200 00000KT P6SM VCSH SCT020 BKN080
     FM270800 00000KT 6SM BR BKN025
     FM271400 20006KT P6SM SCT040 BKN120=



000
FTUS44 KMRX 261724
TAFCHA
TAF
KCHA 261724Z 2618/2718 18008KT P6SM VCTS SCT025 BKN040CB
      TEMPO 2618/2622 5SM -RA BR OVC025
     FM270200 00000KT P6SM VCSH SCT020 BKN080
     FM270800 00000KT 6SM BR BKN025
     FM271400 20006KT P6SM SCT040 BKN120=



000
FTUS44 KMRX 261724
TAFTYS
TAF
KTYS 261724Z 2618/2718 20009KT P6SM VCTS SCT040CB BKN150
      TEMPO 2618/2622 5SM -RA BR FEW030 OVC040
     FM270200 23004KT P6SM VCSH SCT025 BKN080
     FM270800 00000KT 6SM BR BKN025
     FM271400 22006KT P6SM SCT040 BKN120=



000
FTUS44 KMRX 261724
TAFTRI
TAF
KTRI 261724Z 2618/2718 22008KT P6SM VCTS SCT040CB BKN090
      TEMPO 2620/2624 5SM -RA BR OVC040
     FM270200 00000KT P6SM VCSH SCT020 BKN050
     FM270800 00000KT 4SM BR BKN015
     FM271400 25006KT P6SM SCT020 BKN080=



000
FTUS44 KMRX 261441 AAD
TAFCHA
TAF AMD
KCHA 261441Z 2615/2712 17008KT P6SM SCT020 BKN120
      TEMPO 2615/2616 5SM BR FEW010 SCT020
     FM261600 17008KT P6SM VCSH SCT025 BKN120
     FM261800 18010KT P6SM VCTS SCT035 BKN040CB
     FM270100 VRB03KT P6SM VCSH SCT020 BKN080
     FM270500 00000KT 6SM BR BKN025=



000
FTUS44 KMRX 261441 AAD
TAFCHA
TAF AMD
KCHA 261441Z 2615/2712 17008KT P6SM SCT020 BKN120
      TEMPO 2615/2616 5SM BR FEW010 SCT020
     FM261600 17008KT P6SM VCSH SCT025 BKN120
     FM261800 18010KT P6SM VCTS SCT035 BKN040CB
     FM270100 VRB03KT P6SM VCSH SCT020 BKN080
     FM270500 00000KT 6SM BR BKN025=



000
FTUS44 KMRX 261401 AAC
TAFCHA
TAF AMD
KCHA 261401Z 2614/2712 VRB03KT P6SM SCT005 OVC028
      TEMPO 2614/2615 4SM BR OVC009
     FM261500 17008KT P6SM VCSH SCT025 BKN120
     FM261800 18010KT P6SM VCTS SCT035 BKN040CB
     FM270100 VRB03KT P6SM VCSH SCT020 BKN080
     FM270500 00000KT 6SM BR BKN025=



000
FTUS44 KMRX 261401 AAC
TAFCHA
TAF AMD
KCHA 261401Z 2614/2712 VRB03KT P6SM SCT005 OVC028
      TEMPO 2614/2615 4SM BR OVC009
     FM261500 17008KT P6SM VCSH SCT025 BKN120
     FM261800 18010KT P6SM VCTS SCT035 BKN040CB
     FM270100 VRB03KT P6SM VCSH SCT020 BKN080
     FM270500 00000KT 6SM BR BKN025=



000
FTUS44 KMRX 261401 AAC
TAFCHA
TAF AMD
KCHA 261401Z 2614/2712 VRB03KT P6SM SCT005 OVC028
      TEMPO 2614/2615 4SM BR OVC009
     FM261500 17008KT P6SM VCSH SCT025 BKN120
     FM261800 18010KT P6SM VCTS SCT035 BKN040CB
     FM270100 VRB03KT P6SM VCSH SCT020 BKN080
     FM270500 00000KT 6SM BR BKN025=



000
FTUS44 KMRX 261300 AAB
TAFCHA
TAF AMD
KCHA 261300Z 2613/2712 VRB03KT 6SM BR SCT005 OVC010
      TEMPO 2613/2614 2SM BR OVC005
     FM261400 16005KT 5SM BR SCT006 BKN015
     FM261500 17008KT P6SM VCSH SCT025 BKN120
     FM261800 18010KT P6SM VCTS SCT035 BKN040CB
     FM270100 VRB03KT P6SM VCSH SCT020 BKN080
     FM270500 00000KT 6SM BR BKN025=



000
FTUS44 KMRX 261300 AAB
TAFCHA
TAF AMD
KCHA 261300Z 2613/2712 VRB03KT 6SM BR SCT005 OVC010
      TEMPO 2613/2614 2SM BR OVC005
     FM261400 16005KT 5SM BR SCT006 BKN015
     FM261500 17008KT P6SM VCSH SCT025 BKN120
     FM261800 18010KT P6SM VCTS SCT035 BKN040CB
     FM270100 VRB03KT P6SM VCSH SCT020 BKN080
     FM270500 00000KT 6SM BR BKN025=



000
FTUS44 KMRX 261206 AAA
TAFCHA
TAF AMD
KCHA 261206Z 2612/2712 VRB03KT 4SM BR SCT005 OVC010
      TEMPO 2612/2613 1SM BR OVC005
     FM261300 16005KT 5SM BR SCT006 BKN015
     FM261500 17008KT P6SM VCSH SCT025 BKN120
     FM261800 18010KT P6SM VCTS SCT035 BKN040CB
     FM270100 VRB03KT P6SM VCSH SCT020 BKN080
     FM270500 00000KT 6SM BR BKN025=



000
FTUS44 KMRX 261206 AAA
TAFCHA
TAF AMD
KCHA 261206Z 2612/2712 VRB03KT 4SM BR SCT005 OVC010
      TEMPO 2612/2613 1SM BR OVC005
     FM261300 16005KT 5SM BR SCT006 BKN015
     FM261500 17008KT P6SM VCSH SCT025 BKN120
     FM261800 18010KT P6SM VCTS SCT035 BKN040CB
     FM270100 VRB03KT P6SM VCSH SCT020 BKN080
     FM270500 00000KT 6SM BR BKN025=



000
FTUS44 KMRX 261206 AAA
TAFCHA
TAF AMD
KCHA 261206Z 2612/2712 VRB03KT 4SM BR SCT005 OVC010
      TEMPO 2612/2613 1SM BR OVC005
     FM261300 16005KT 5SM BR SCT006 BKN015
     FM261500 17008KT P6SM VCSH SCT025 BKN120
     FM261800 18010KT P6SM VCTS SCT035 BKN040CB
     FM270100 VRB03KT P6SM VCSH SCT020 BKN080
     FM270500 00000KT 6SM BR BKN025=



000
FTUS44 KMRX 261125
TAFCHA
TAF
KCHA 261125Z 2612/2712 VRB03KT 5SM BR BKN005 OVC010
      TEMPO 2612/2613 2SM BR OVC005
     FM261330 16005KT P6SM SCT006 BKN015
     FM261500 17008KT P6SM VCSH SCT025 BKN120
     FM261800 18010KT P6SM VCTS SCT035 BKN040CB
     FM270100 VRB03KT P6SM VCSH SCT020 BKN080
     FM270500 00000KT 6SM BR BKN025=



000
FTUS44 KMRX 261125
TAFTYS
TAF
KTYS 261125Z 2612/2712 VRB03KT P6SM SCT020 SCT040 BKN120
     FM261500 23008KT P6SM VCSH SCT040 BKN100
     FM261900 23010KT P6SM VCTS BKN040CB
     FM270200 22006KT P6SM VCSH SCT035 BKN070
     FM270600 24004KT 6SM BR BKN030=



000
FTUS44 KMRX 261125
TAFTYS
TAF
KTYS 261125Z 2612/2712 VRB03KT P6SM SCT020 SCT040 BKN120
     FM261500 23008KT P6SM VCSH SCT040 BKN100
     FM261900 23010KT P6SM VCTS BKN040CB
     FM270200 22006KT P6SM VCSH SCT035 BKN070
     FM270600 24004KT 6SM BR BKN030=



000
FTUS44 KMRX 261125
TAFCHA
TAF
KCHA 261125Z 2612/2712 VRB03KT 5SM BR BKN005 OVC010
      TEMPO 2612/2613 2SM BR OVC005
     FM261330 16005KT P6SM SCT006 BKN015
     FM261500 17008KT P6SM VCSH SCT025 BKN120
     FM261800 18010KT P6SM VCTS SCT035 BKN040CB
     FM270100 VRB03KT P6SM VCSH SCT020 BKN080
     FM270500 00000KT 6SM BR BKN025=



000
FTUS44 KMRX 261125
TAFTRI
TAF
KTRI 261125Z 2612/2712 12003KT P6SM SCT060 BKN100
     FM261600 00000KT P6SM VCSH SCT040 BKN100
     FM262000 20008KT P6SM VCTS BKN045CB
     FM270300 VRB02KT P6SM VCSH SCT030 BKN060
     FM270700 00000KT 5SM BR BKN025=



000
FTUS44 KMRX 261125
TAFTRI
TAF
KTRI 261125Z 2612/2712 12003KT P6SM SCT060 BKN100
     FM261600 00000KT P6SM VCSH SCT040 BKN100
     FM262000 20008KT P6SM VCTS BKN045CB
     FM270300 VRB02KT P6SM VCSH SCT030 BKN060
     FM270700 00000KT 5SM BR BKN025=



000
FTUS44 KMRX 261102 AAC
TAFCHA
TAF AMD
KCHA 261102Z 2611/2706 00000KT 5SM BR BKN005 OVC010
      TEMPO 2611/2613 2SM BR OVC005
     FM261330 17003KT P6SM SCT006 BKN015
     FM261500 18010KT P6SM VCTS SCT040CB BKN120
     FM270000 18005KT P6SM VCTS BKN050CB=



000
FTUS44 KMRX 261102 AAC
TAFCHA
TAF AMD
KCHA 261102Z 2611/2706 00000KT 5SM BR BKN005 OVC010
      TEMPO 2611/2613 2SM BR OVC005
     FM261330 17003KT P6SM SCT006 BKN015
     FM261500 18010KT P6SM VCTS SCT040CB BKN120
     FM270000 18005KT P6SM VCTS BKN050CB=



000
FTUS44 KMRX 261102 AAC
TAFCHA
TAF AMD
KCHA 261102Z 2611/2706 00000KT 5SM BR BKN005 OVC010
      TEMPO 2611/2613 2SM BR OVC005
     FM261330 17003KT P6SM SCT006 BKN015
     FM261500 18010KT P6SM VCTS SCT040CB BKN120
     FM270000 18005KT P6SM VCTS BKN050CB=



000
FTUS44 KMRX 261010 AAA
TAFTRI
TAF AMD
KTRI 261010Z 2610/2706 16003KT P6SM -RA BKN090
     FM261100 VRB03KT P6SM SCT050 BKN100
     FM261600 00000KT P6SM VCTS BKN035CB
     FM262000 20008KT P6SM VCTS BKN050CB=



000
FTUS44 KMRX 261010 AAA
TAFTRI
TAF AMD
KTRI 261010Z 2610/2706 16003KT P6SM -RA BKN090
     FM261100 VRB03KT P6SM SCT050 BKN100
     FM261600 00000KT P6SM VCTS BKN035CB
     FM262000 20008KT P6SM VCTS BKN050CB=



000
FTUS44 KMRX 261007 AAB
TAFCHA
TAF AMD
KCHA 261007Z 2610/2706 00000KT 6SM BR VCSH BKN005 OVC010
     FM261330 17003KT P6SM SCT006 BKN015
     FM261500 18010KT P6SM VCTS SCT040CB BKN120
     FM270000 18005KT P6SM VCTS BKN050CB=



000
FTUS44 KMRX 261007 AAB
TAFCHA
TAF AMD
KCHA 261007Z 2610/2706 00000KT 6SM BR VCSH BKN005 OVC010
     FM261330 17003KT P6SM SCT006 BKN015
     FM261500 18010KT P6SM VCTS SCT040CB BKN120
     FM270000 18005KT P6SM VCTS BKN050CB=



000
FTUS44 KMRX 260625 AAA
TAFCHA
TAF AMD
KCHA 260625Z 2606/2706 00000KT P6SM FEW003 SCT015 BKN100
      TEMPO 2606/2610 5SM BR SCT003 BKN015
     FM261000 17004KT P6SM VCSH BKN025
     FM261500 18010KT P6SM VCTS SCT040CB BKN120
     FM270000 18005KT P6SM VCTS BKN050CB=



000
FTUS44 KMRX 260625 AAA
TAFCHA
TAF AMD
KCHA 260625Z 2606/2706 00000KT P6SM FEW003 SCT015 BKN100
      TEMPO 2606/2610 5SM BR SCT003 BKN015
     FM261000 17004KT P6SM VCSH BKN025
     FM261500 18010KT P6SM VCTS SCT040CB BKN120
     FM270000 18005KT P6SM VCTS BKN050CB=



000
FTUS44 KMRX 260625 AAA
TAFCHA
TAF AMD
KCHA 260625Z 2606/2706 00000KT P6SM FEW003 SCT015 BKN100
      TEMPO 2606/2610 5SM BR SCT003 BKN015
     FM261000 17004KT P6SM VCSH BKN025
     FM261500 18010KT P6SM VCTS SCT040CB BKN120
     FM270000 18005KT P6SM VCTS BKN050CB=



000
FTUS44 KMRX 260625 AAA
TAFCHA
TAF AMD
KCHA 260625Z 2606/2706 00000KT P6SM FEW003 SCT015 BKN100
      TEMPO 2606/2610 5SM BR SCT003 BKN015
     FM261000 17004KT P6SM VCSH BKN025
     FM261500 18010KT P6SM VCTS SCT040CB BKN120
     FM270000 18005KT P6SM VCTS BKN050CB=



000
FTUS44 KMRX 260520
TAFTRI
TAF
KTRI 260520Z 2606/2706 17003KT P6SM SCT100 BKN150
     FM260800 VRB02KT P6SM SCT050 BKN090
     FM261500 00000KT P6SM VCTS BKN030CB
     FM261800 20008KT P6SM VCTS BKN050CB=



000
FTUS44 KMRX 260520
TAFTYS
TAF
KTYS 260520Z 2606/2706 24006KT P6SM BKN100
     FM261500 22009KT P6SM VCTS SCT040CB
     FM270000 22008KT P6SM VCTS BKN040CB=



000
FTUS44 KMRX 260520
TAFTYS
TAF
KTYS 260520Z 2606/2706 24006KT P6SM BKN100
     FM261500 22009KT P6SM VCTS SCT040CB
     FM270000 22008KT P6SM VCTS BKN040CB=



000
FTUS44 KMRX 260520
TAFCHA
TAF
KCHA 260520Z 2606/2706 VRB02KT P6SM BKN100
      TEMPO 2608/2610 5SM BR SCT010
     FM261100 17004KT P6SM VCSH BKN025
     FM261500 18010KT P6SM VCTS SCT040CB BKN120
     FM270000 18005KT P6SM VCTS BKN050CB=



000
FTUS44 KMRX 260520
TAFTYS
TAF
KTYS 260520Z 2606/2706 24006KT P6SM BKN100
     FM261500 22009KT P6SM VCTS SCT040CB
     FM270000 22008KT P6SM VCTS BKN040CB=



000
FTUS44 KMRX 260520
TAFTRI
TAF
KTRI 260520Z 2606/2706 17003KT P6SM SCT100 BKN150
     FM260800 VRB02KT P6SM SCT050 BKN090
     FM261500 00000KT P6SM VCTS BKN030CB
     FM261800 20008KT P6SM VCTS BKN050CB=



000
FTUS44 KMRX 260520
TAFCHA
TAF
KCHA 260520Z 2606/2706 VRB02KT P6SM BKN100
      TEMPO 2608/2610 5SM BR SCT010
     FM261100 17004KT P6SM VCSH BKN025
     FM261500 18010KT P6SM VCTS SCT040CB BKN120
     FM270000 18005KT P6SM VCTS BKN050CB=



000
FTUS44 KMRX 260520
TAFCHA
TAF
KCHA 260520Z 2606/2706 VRB02KT P6SM BKN100
      TEMPO 2608/2610 5SM BR SCT010
     FM261100 17004KT P6SM VCSH BKN025
     FM261500 18010KT P6SM VCTS SCT040CB BKN120
     FM270000 18005KT P6SM VCTS BKN050CB=



000
FTUS44 KMRX 260520
TAFTYS
TAF
KTYS 260520Z 2606/2706 24006KT P6SM BKN100
     FM261500 22009KT P6SM VCTS SCT040CB
     FM270000 22008KT P6SM VCTS BKN040CB=



000
FTUS44 KMRX 260520
TAFTRI
TAF
KTRI 260520Z 2606/2706 17003KT P6SM SCT100 BKN150
     FM260800 VRB02KT P6SM SCT050 BKN090
     FM261500 00000KT P6SM VCTS BKN030CB
     FM261800 20008KT P6SM VCTS BKN050CB=



000
FTUS44 KMRX 260520
TAFCHA
TAF
KCHA 260520Z 2606/2706 VRB02KT P6SM BKN100
      TEMPO 2608/2610 5SM BR SCT010
     FM261100 17004KT P6SM VCSH BKN025
     FM261500 18010KT P6SM VCTS SCT040CB BKN120
     FM270000 18005KT P6SM VCTS BKN050CB=



000
FTUS44 KMRX 260520
TAFTRI
TAF
KTRI 260520Z 2606/2706 17003KT P6SM SCT100 BKN150
     FM260800 VRB02KT P6SM SCT050 BKN090
     FM261500 00000KT P6SM VCTS BKN030CB
     FM261800 20008KT P6SM VCTS BKN050CB=



000
FTUS44 KMRX 260017 AAA
TAFTYS
TAF AMD
KTYS 260017Z 2600/2624 22004KT P6SM VCSH BKN070
      TEMPO 2601/2604 5SM SHRA BR BKN040
     FM261400 22009KT P6SM VCSH BKN050
     FM262100 22010KT P6SM VCTS BKN060CB=



000
FTUS44 KMRX 260017 AAA
TAFTYS
TAF AMD
KTYS 260017Z 2600/2624 22004KT P6SM VCSH BKN070
      TEMPO 2601/2604 5SM SHRA BR BKN040
     FM261400 22009KT P6SM VCSH BKN050
     FM262100 22010KT P6SM VCTS BKN060CB=



000
FTUS44 KMRX 260017 AAA
TAFTYS
TAF AMD
KTYS 260017Z 2600/2624 22004KT P6SM VCSH BKN070
      TEMPO 2601/2604 5SM SHRA BR BKN040
     FM261400 22009KT P6SM VCSH BKN050
     FM262100 22010KT P6SM VCTS BKN060CB=



000
FTUS44 KMRX 252326
TAFCHA
TAF
KCHA 252326Z 2600/2624 18004KT 4SM BR VCTS BKN040CB
     FM260200 18003KT P6SM VCSH BKN050
     FM261100 17004KT P6SM VCSH BKN020
     FM261600 18010KT P6SM VCTS BKN050CB=



000
FTUS44 KMRX 252326
TAFCHA
TAF
KCHA 252326Z 2600/2624 18004KT 4SM BR VCTS BKN040CB
     FM260200 18003KT P6SM VCSH BKN050
     FM261100 17004KT P6SM VCSH BKN020
     FM261600 18010KT P6SM VCTS BKN050CB=



000
FTUS44 KMRX 252326
TAFTYS
TAF
KTYS 252326Z 2600/2624 22004KT P6SM VCSH BKN070
      TEMPO 2600/2603 5SM SHRA BR BKN040
     FM261400 22009KT P6SM VCSH BKN050
     FM262100 22010KT P6SM VCTS BKN060CB=



000
FTUS44 KMRX 252326
TAFTYS
TAF
KTYS 252326Z 2600/2624 22004KT P6SM VCSH BKN070
      TEMPO 2600/2603 5SM SHRA BR BKN040
     FM261400 22009KT P6SM VCSH BKN050
     FM262100 22010KT P6SM VCTS BKN060CB=



000
FTUS44 KMRX 252326
TAFTRI
TAF
KTRI 252326Z 2600/2624 21006KT P6SM BKN250
     FM260300 00000KT P6SM VCSH BKN050
     FM261200 00000KT P6SM VCSH BKN025
     FM261700 21007KT P6SM BKN050=



000
FTUS44 KMRX 252326
TAFTRI
TAF
KTRI 252326Z 2600/2624 21006KT P6SM BKN250
     FM260300 00000KT P6SM VCSH BKN050
     FM261200 00000KT P6SM VCSH BKN025
     FM261700 21007KT P6SM BKN050=



000
FTUS44 KMRX 252326
TAFCHA
TAF
KCHA 252326Z 2600/2624 18004KT 4SM BR VCTS BKN040CB
     FM260200 18003KT P6SM VCSH BKN050
     FM261100 17004KT P6SM VCSH BKN020
     FM261600 18010KT P6SM VCTS BKN050CB=



000
FTUS44 KMRX 252220 AAA
TAFTYS
TAF AMD
KTYS 252220Z 2522/2618 22010KT P6SM BKN070
     FM252300 22006KT P6SM VCSH BKN050
     FM261400 22009KT P6SM SCT050 BKN060=



000
FTUS44 KMRX 252220 AAA
TAFTYS
TAF AMD
KTYS 252220Z 2522/2618 22010KT P6SM BKN070
     FM252300 22006KT P6SM VCSH BKN050
     FM261400 22009KT P6SM SCT050 BKN060=



000
FTUS44 KMRX 252214 AAB
TAFTRI
TAF AMD
KTRI 252214Z 2522/2618 21006KT P6SM BKN250
     FM260100 20003KT P6SM VCSH BKN050
     FM261400 24009KT P6SM BKN040=



000
FTUS44 KMRX 252214 AAB
TAFTRI
TAF AMD
KTRI 252214Z 2522/2618 21006KT P6SM BKN250
     FM260100 20003KT P6SM VCSH BKN050
     FM261400 24009KT P6SM BKN040=



000
FTUS44 KMRX 252041 AAA
TAFCHA
TAF AMD
KCHA 252041Z 2521/2618 15008KT P6SM VCTS BKN040CB
      TEMPO 2521/2523 5SM TSRA BKN030CB
     FM260000 16004KT P6SM VCSH BKN050
     FM261400 19005KT P6SM SCT050 BKN080=



000
FTUS44 KMRX 252041 AAA
TAFCHA
TAF AMD
KCHA 252041Z 2521/2618 15008KT P6SM VCTS BKN040CB
      TEMPO 2521/2523 5SM TSRA BKN030CB
     FM260000 16004KT P6SM VCSH BKN050
     FM261400 19005KT P6SM SCT050 BKN080=



000
FTUS44 KMRX 251904 AAA
TAFTRI
TAF AMD
KTRI 251904Z 2519/2618 19007KT P6SM SCT050
     FM252300 20008KT P6SM VCTS BKN050CB
     FM260200 00000KT P6SM VCSH BKN040
     FM261400 24009KT P6SM SCT050 BKN070=



000
FTUS44 KMRX 251722
TAFCHA
TAF
KCHA 251722Z 2518/2618 14011KT P6SM SCT030 BKN050
     FM252000 17008KT P6SM VCTS BKN040CB
      TEMPO 2520/2524 5SM -SHRA BR SCT028 OVC035
     FM260000 16004KT P6SM VCSH BKN050
     FM261400 19005KT P6SM SCT050 BKN080=



000
FTUS44 KMRX 251722
TAFCHA
TAF
KCHA 251722Z 2518/2618 14011KT P6SM SCT030 BKN050
     FM252000 17008KT P6SM VCTS BKN040CB
      TEMPO 2520/2524 5SM -SHRA BR SCT028 OVC035
     FM260000 16004KT P6SM VCSH BKN050
     FM261400 19005KT P6SM SCT050 BKN080=



000
FTUS44 KMRX 251722
TAFTRI
TAF
KTRI 251722Z 2518/2618 17009G16KT P6SM SCT100
     FM252300 20008KT P6SM VCTS BKN050CB
     FM260200 00000KT P6SM VCSH BKN040
     FM261400 24009KT P6SM SCT050 BKN070=



000
FTUS44 KMRX 251722
TAFTRI
TAF
KTRI 251722Z 2518/2618 17009G16KT P6SM SCT100
     FM252300 20008KT P6SM VCTS BKN050CB
     FM260200 00000KT P6SM VCSH BKN040
     FM261400 24009KT P6SM SCT050 BKN070=



000
FTUS44 KMRX 251722
TAFTYS
TAF
KTYS 251722Z 2518/2618 18010KT P6SM SCT040
     FM252200 22008KT P6SM VCTS BKN050CB
     FM260100 21004KT P6SM VCSH BKN050
     FM261400 22009KT P6SM SCT050 BKN070=



000
FTUS44 KMRX 251722
TAFTRI
TAF
KTRI 251722Z 2518/2618 17009G16KT P6SM SCT100
     FM252300 20008KT P6SM VCTS BKN050CB
     FM260200 00000KT P6SM VCSH BKN040
     FM261400 24009KT P6SM SCT050 BKN070=



000
FTUS44 KMRX 251722
TAFTYS
TAF
KTYS 251722Z 2518/2618 18010KT P6SM SCT040
     FM252200 22008KT P6SM VCTS BKN050CB
     FM260100 21004KT P6SM VCSH BKN050
     FM261400 22009KT P6SM SCT050 BKN070=



000
FTUS44 KMRX 251722
TAFTYS
TAF
KTYS 251722Z 2518/2618 18010KT P6SM SCT040
     FM252200 22008KT P6SM VCTS BKN050CB
     FM260100 21004KT P6SM VCSH BKN050
     FM261400 22009KT P6SM SCT050 BKN070=



000
FTUS44 KMRX 251722
TAFCHA
TAF
KCHA 251722Z 2518/2618 14011KT P6SM SCT030 BKN050
     FM252000 17008KT P6SM VCTS BKN040CB
      TEMPO 2520/2524 5SM -SHRA BR SCT028 OVC035
     FM260000 16004KT P6SM VCSH BKN050
     FM261400 19005KT P6SM SCT050 BKN080=



000
FTUS44 KMRX 251722
TAFCHA
TAF
KCHA 251722Z 2518/2618 14011KT P6SM SCT030 BKN050
     FM252000 17008KT P6SM VCTS BKN040CB
      TEMPO 2520/2524 5SM -SHRA BR SCT028 OVC035
     FM260000 16004KT P6SM VCSH BKN050
     FM261400 19005KT P6SM SCT050 BKN080=



000
FTUS44 KMRX 251509 AAA
TAFCHA
TAF AMD
KCHA 251509Z 2515/2612 15008G16KT P6SM SCT025 BKN035
     FM251800 15007KT P6SM BKN035
     FM252000 17008KT P6SM VCTS BKN040CB
      TEMPO 2520/2524 3SM -TSRA BR OVC020CB
     FM260000 16004KT P6SM VCSH BKN050=



000
FTUS44 KMRX 251509 AAA
TAFCHA
TAF AMD
KCHA 251509Z 2515/2612 15008G16KT P6SM SCT025 BKN035
     FM251800 15007KT P6SM BKN035
     FM252000 17008KT P6SM VCTS BKN040CB
      TEMPO 2520/2524 3SM -TSRA BR OVC020CB
     FM260000 16004KT P6SM VCSH BKN050=



000
FTUS44 KMRX 251120
TAFTRI
TAF
KTRI 251120Z 2512/2612 18006KT P6SM SCT250
     FM260200 18004KT P6SM VCSH BKN050=



000
FTUS44 KMRX 251120
TAFCHA
TAF
KCHA 251120Z 2512/2612 15006KT P6SM BKN025
     FM251600 15007KT P6SM BKN035
     FM252000 17008KT P6SM VCTS BKN040CB
      TEMPO 2520/2524 3SM -TSRA BR OVC020CB
     FM260000 16004KT P6SM VCSH BKN050=



000
FTUS44 KMRX 251120
TAFTYS
TAF
KTYS 251120Z 2512/2612 VRB03KT P6SM SCT035 SCT250
     FM252200 22008KT P6SM VCTS BKN050CB
     FM260300 21004KT P6SM VCSH BKN050=



000
FTUS44 KMRX 251120
TAFTRI
TAF
KTRI 251120Z 2512/2612 18006KT P6SM SCT250
     FM260200 18004KT P6SM VCSH BKN050=



000
FTUS44 KMRX 251120
TAFCHA
TAF
KCHA 251120Z 2512/2612 15006KT P6SM BKN025
     FM251600 15007KT P6SM BKN035
     FM252000 17008KT P6SM VCTS BKN040CB
      TEMPO 2520/2524 3SM -TSRA BR OVC020CB
     FM260000 16004KT P6SM VCSH BKN050=



000
FTUS44 KMRX 251120
TAFTYS
TAF
KTYS 251120Z 2512/2612 VRB03KT P6SM SCT035 SCT250
     FM252200 22008KT P6SM VCTS BKN050CB
     FM260300 21004KT P6SM VCSH BKN050=



000
FTUS44 KMRX 250520
TAFTYS
TAF
KTYS 250520Z 2506/2606 21005KT P6SM SCT250
     FM251500 21007KT P6SM SCT050 BKN150
     FM252100 22008KT P6SM VCTS BKN050CB
     FM260200 21004KT P6SM BKN050=



000
FTUS44 KMRX 250520
TAFTRI
TAF
KTRI 250520Z 2506/2606 00000KT P6SM SCT250
     FM251500 20008KT P6SM SCT050
     FM260000 20004KT P6SM BKN100=



000
FTUS44 KMRX 250520
TAFCHA
TAF
KCHA 250520Z 2506/2606 15006KT P6SM SCT150
     FM251300 15007KT P6SM BKN035
     FM251900 17008KT P6SM VCTS BKN040CB
      TEMPO 2520/2523 3SM -TSRA BR OVC020CB
     FM260000 16004KT P6SM VCSH BKN050=



000
FTUS44 KMRX 250520
TAFCHA
TAF
KCHA 250520Z 2506/2606 15006KT P6SM SCT150
     FM251300 15007KT P6SM BKN035
     FM251900 17008KT P6SM VCTS BKN040CB
      TEMPO 2520/2523 3SM -TSRA BR OVC020CB
     FM260000 16004KT P6SM VCSH BKN050=



000
FTUS44 KMRX 250520
TAFTYS
TAF
KTYS 250520Z 2506/2606 21005KT P6SM SCT250
     FM251500 21007KT P6SM SCT050 BKN150
     FM252100 22008KT P6SM VCTS BKN050CB
     FM260200 21004KT P6SM BKN050=



000
FTUS44 KMRX 250520
TAFTRI
TAF
KTRI 250520Z 2506/2606 00000KT P6SM SCT250
     FM251500 20008KT P6SM SCT050
     FM260000 20004KT P6SM BKN100=



000
FTUS44 KMRX 242320
TAFTRI
TAF
KTRI 242320Z 2500/2524 VRB03KT P6SM FEW250
     FM251600 20008KT P6SM BKN180
     FM252100 22008KT P6SM BKN060=



000
FTUS44 KMRX 242320
TAFTRI
TAF
KTRI 242320Z 2500/2524 VRB03KT P6SM FEW250
     FM251600 20008KT P6SM BKN180
     FM252100 22008KT P6SM BKN060=



000
FTUS44 KMRX 242320
TAFTYS
TAF
KTYS 242320Z 2500/2524 22005KT P6SM FEW080
     FM251500 23007KT P6SM BKN060
     FM252000 23007KT P6SM VCTS BKN050CB=



000
FTUS44 KMRX 242320
TAFTRI
TAF
KTRI 242320Z 2500/2524 VRB03KT P6SM FEW250
     FM251600 20008KT P6SM BKN180
     FM252100 22008KT P6SM BKN060=



000
FTUS44 KMRX 242320
TAFTYS
TAF
KTYS 242320Z 2500/2524 22005KT P6SM FEW080
     FM251500 23007KT P6SM BKN060
     FM252000 23007KT P6SM VCTS BKN050CB=



000
FTUS44 KMRX 242320
TAFTYS
TAF
KTYS 242320Z 2500/2524 22005KT P6SM FEW080
     FM251500 23007KT P6SM BKN060
     FM252000 23007KT P6SM VCTS BKN050CB=



000
FTUS44 KMRX 242320
TAFCHA
TAF
KCHA 242320Z 2500/2524 14008KT P6SM BKN060
     FM250900 15006KT P6SM VCSH BKN035
     FM251800 17005KT P6SM VCTS BKN045CB=



000
FTUS44 KMRX 242320
TAFCHA
TAF
KCHA 242320Z 2500/2524 14008KT P6SM BKN060
     FM250900 15006KT P6SM VCSH BKN035
     FM251800 17005KT P6SM VCTS BKN045CB=



000
FTUS44 KMRX 242320
TAFCHA
TAF
KCHA 242320Z 2500/2524 14008KT P6SM BKN060
     FM250900 15006KT P6SM VCSH BKN035
     FM251800 17005KT P6SM VCTS BKN045CB=



000
FTUS44 KMRX 242320
TAFTRI
TAF
KTRI 242320Z 2500/2524 VRB03KT P6SM FEW250
     FM251600 20008KT P6SM BKN180
     FM252100 22008KT P6SM BKN060=



000
FTUS44 KMRX 241720
TAFTYS
TAF
KTYS 241720Z 2418/2518 20009KT P6SM SCT250
     FM250100 22005KT P6SM SCT150
     FM251400 VRB03KT P6SM SCT040 BKN100=



000
FTUS44 KMRX 241720
TAFTRI
TAF
KTRI 241720Z 2418/2518 16006KT P6SM SCT250
     FM250100 VRB03KT P6SM SCT150
     FM251300 VRB03KT P6SM SCT040 BKN100=



000
FTUS44 KMRX 241720
TAFCHA
TAF
KCHA 241720Z 2418/2518 14012KT P6SM SCT250
     FM250100 14006KT P6SM SCT050
     FM250800 VRB03KT P6SM VCSH BKN040
     FM251400 17005KT P6SM SCT035 BKN100=



000
FTUS44 KMRX 241720
TAFTRI
TAF
KTRI 241720Z 2418/2518 16006KT P6SM SCT250
     FM250100 VRB03KT P6SM SCT150
     FM251300 VRB03KT P6SM SCT040 BKN100=



000
FTUS44 KMRX 241720
TAFCHA
TAF
KCHA 241720Z 2418/2518 14012KT P6SM SCT250
     FM250100 14006KT P6SM SCT050
     FM250800 VRB03KT P6SM VCSH BKN040
     FM251400 17005KT P6SM SCT035 BKN100=



000
FTUS44 KMRX 241720
TAFTYS
TAF
KTYS 241720Z 2418/2518 20009KT P6SM SCT250
     FM250100 22005KT P6SM SCT150
     FM251400 VRB03KT P6SM SCT040 BKN100=



    US Dept of Commerce
    National Oceanic and Atmospheric Administration
    National Weather Service
    1325 East West Highway
    Silver Spring, MD 20910
    Page Author: NWS Internet Services Team
Disclaimer
Information Quality
Credits
Glossary
Privacy Policy
Freedom of Information Act (FOIA)
About Us
Career Opportunities